sensor_id;sensor_type;location;lat;lon;timestamp;pressure;altitude;pressure_sealevel;temperature;humidity
70954;BME280;58618;47.490;8.736;2023-02-17T00:01:43;97621.97;;;4.84;95.29
70954;BME280;58618;47.490;8.736;2023-02-17T00:04:15;97623.31;;;4.87;94.89
70954;BME280;58618;47.490;8.736;2023-02-17T00:06:43;97614.63;;;4.94;96.42
70954;BME280;58618;47.490;8.736;2023-02-17T00:09:14;97625.59;;;5.01;96.09
70954;BME280;58618;47.490;8.736;2023-02-17T00:11:43;97608.31;;;4.97;95.92
70954;BME280;58618;47.490;8.736;2023-02-17T00:14:12;97618.06;;;5.06;94.74
70954;BME280;58618;47.490;8.736;2023-02-17T00:16:48;97627.13;;;5.02;94.42
70954;BME280;58618;47.490;8.736;2023-02-17T00:19:18;97607.56;;;4.90;93.58
70954;BME280;58618;47.490;8.736;2023-02-17T00:21:55;97625.19;;;4.98;94.04
70954;BME280;58618;47.490;8.736;2023-02-17T00:24:26;97633.28;;;4.95;95.25
70954;BME280;58618;47.490;8.736;2023-02-17T00:26:55;97629.16;;;4.94;94.48
70954;BME280;58618;47.490;8.736;2023-02-17T00:29:24;97628.81;;;4.90;94.55
70954;BME280;58618;47.490;8.736;2023-02-17T00:31:56;97632.72;;;4.93;95.58
70954;BME280;58618;47.490;8.736;2023-02-17T00:34:25;97630.81;;;4.82;93.89
70954;BME280;58618;47.490;8.736;2023-02-17T00:36:54;97632.81;;;4.80;93.68
70954;BME280;58618;47.490;8.736;2023-02-17T00:39:35;97640.31;;;4.75;93.51
70954;BME280;58618;47.490;8.736;2023-02-17T00:42:06;97644.69;;;4.67;94.40
70954;BME280;58618;47.490;8.736;2023-02-17T00:44:35;97642.00;;;4.56;93.88
70954;BME280;58618;47.490;8.736;2023-02-17T00:47:07;97642.06;;;4.49;95.96
70954;BME280;58618;47.490;8.736;2023-02-17T00:49:38;97642.28;;;4.41;95.70
70954;BME280;58618;47.490;8.736;2023-02-17T00:52:07;97637.81;;;4.30;95.11
70954;BME280;58618;47.490;8.736;2023-02-17T00:54:36;97631.22;;;4.16;95.59
70954;BME280;58618;47.490;8.736;2023-02-17T00:57:07;97637.31;;;4.08;95.79
70954;BME280;58618;47.490;8.736;2023-02-17T00:59:38;97637.13;;;4.10;95.55
70954;BME280;58618;47.490;8.736;2023-02-17T01:02:16;97632.91;;;3.91;95.11
70954;BME280;58618;47.490;8.736;2023-02-17T01:04:47;97642.94;;;3.86;95.96
70954;BME280;58618;47.490;8.736;2023-02-17T01:07:17;97652.16;;;3.80;95.78
70954;BME280;58618;47.490;8.736;2023-02-17T01:09:47;97656.69;;;3.71;96.70
70954;BME280;58618;47.490;8.736;2023-02-17T01:12:15;97651.81;;;3.57;97.04
70954;BME280;58618;47.490;8.736;2023-02-17T01:14:45;97660.44;;;3.49;97.32
70954;BME280;58618;47.490;8.736;2023-02-17T01:17:18;97653.81;;;3.48;98.91
70954;BME280;58618;47.490;8.736;2023-02-17T01:19:47;97647.72;;;3.36;99.28
70954;BME280;58618;47.490;8.736;2023-02-17T01:22:14;97643.22;;;3.31;99.57
70954;BME280;58618;47.490;8.736;2023-02-17T01:24:42;97643.97;;;3.38;99.99
70954;BME280;58618;47.490;8.736;2023-02-17T01:27:09;97647.50;;;3.44;98.93
70954;BME280;58618;47.490;8.736;2023-02-17T01:29:36;97650.06;;;3.44;100.00
70954;BME280;58618;47.490;8.736;2023-02-17T01:32:06;97620.09;;;3.33;100.00
70954;BME280;58618;47.490;8.736;2023-02-17T01:34:33;97641.63;;;3.50;100.00
70954;BME280;58618;47.490;8.736;2023-02-17T01:37:02;97641.41;;;3.58;100.00
70954;BME280;58618;47.490;8.736;2023-02-17T01:39:29;97643.19;;;3.64;100.00
70954;BME280;58618;47.490;8.736;2023-02-17T01:41:56;97633.16;;;3.69;99.10
70954;BME280;58618;47.490;8.736;2023-02-17T01:44:25;97636.03;;;3.86;99.66
70954;BME280;58618;47.490;8.736;2023-02-17T01:46:53;97648.22;;;3.91;99.81
70954;BME280;58618;47.490;8.736;2023-02-17T01:49:26;97645.06;;;3.95;100.00
70954;BME280;58618;47.490;8.736;2023-02-17T01:51:56;97630.88;;;3.99;100.00
70954;BME280;58618;47.490;8.736;2023-02-17T01:54:29;97619.13;;;3.92;98.86
70954;BME280;58618;47.490;8.736;2023-02-17T01:57:00;97625.34;;;4.09;98.87
70954;BME280;58618;47.490;8.736;2023-02-17T01:59:30;97607.31;;;3.97;97.82
70954;BME280;58618;47.490;8.736;2023-02-17T02:01:59;97633.53;;;4.24;98.99
70954;BME280;58618;47.490;8.736;2023-02-17T02:04:31;97627.59;;;4.30;98.54
70954;BME280;58618;47.490;8.736;2023-02-17T02:06:59;97627.56;;;4.43;98.48
70954;BME280;58618;47.490;8.736;2023-02-17T02:09:30;97619.91;;;4.37;98.50
70954;BME280;58618;47.490;8.736;2023-02-17T02:11:59;97620.69;;;4.37;98.99
70954;BME280;58618;47.490;8.736;2023-02-17T02:14:26;97605.94;;;4.39;96.70
70954;BME280;58618;47.490;8.736;2023-02-17T02:17:03;97591.06;;;4.30;97.24
70954;BME280;58618;47.490;8.736;2023-02-17T02:19:44;97618.31;;;4.42;97.67
70954;BME280;58618;47.490;8.736;2023-02-17T02:22:46;97620.44;;;4.45;97.07
70954;BME280;58618;47.490;8.736;2023-02-17T02:25:37;97593.00;;;4.34;97.60
70954;BME280;58618;47.490;8.736;2023-02-17T02:28:18;97609.84;;;4.48;96.37
70954;BME280;58618;47.490;8.736;2023-02-17T02:31:03;97618.03;;;4.57;94.67
70954;BME280;58618;47.490;8.736;2023-02-17T02:33:39;97610.56;;;4.55;95.15
70954;BME280;58618;47.490;8.736;2023-02-17T02:36:12;97588.56;;;4.54;95.94
70954;BME280;58618;47.490;8.736;2023-02-17T02:38:46;97611.31;;;4.62;95.64
70954;BME280;58618;47.490;8.736;2023-02-17T02:41:21;97606.19;;;4.62;95.36
70954;BME280;58618;47.490;8.736;2023-02-17T02:43:50;97602.63;;;4.70;96.38
70954;BME280;58618;47.490;8.736;2023-02-17T02:46:18;97603.38;;;4.71;94.50
70954;BME280;58618;47.490;8.736;2023-02-17T02:48:47;97601.00;;;4.76;94.32
70954;BME280;58618;47.490;8.736;2023-02-17T02:51:23;97593.69;;;5.04;87.69
70954;BME280;58618;47.490;8.736;2023-02-17T02:54:02;97578.50;;;5.09;84.91
70954;BME280;58618;47.490;8.736;2023-02-17T02:56:45;97592.91;;;5.65;77.38
70954;BME280;58618;47.490;8.736;2023-02-17T02:59:25;97588.78;;;5.64;79.39
70954;BME280;58618;47.490;8.736;2023-02-17T03:02:04;97596.31;;;5.95;77.94
70954;BME280;58618;47.490;8.736;2023-02-17T03:04:40;97606.41;;;6.08;76.93
70954;BME280;58618;47.490;8.736;2023-02-17T03:07:13;97560.75;;;5.87;76.51
70954;BME280;58618;47.490;8.736;2023-02-17T03:09:48;97592.44;;;6.22;76.59
70954;BME280;58618;47.490;8.736;2023-02-17T03:12:16;97591.13;;;6.31;74.77
70954;BME280;58618;47.490;8.736;2023-02-17T03:14:44;97587.78;;;6.61;72.56
70954;BME280;58618;47.490;8.736;2023-02-17T03:17:12;97585.34;;;6.66;71.41
70954;BME280;58618;47.490;8.736;2023-02-17T03:19:41;97586.56;;;6.75;71.38
70954;BME280;58618;47.490;8.736;2023-02-17T03:22:16;97564.94;;;6.71;70.79
70954;BME280;58618;47.490;8.736;2023-02-17T03:24:45;97579.91;;;6.97;68.96
70954;BME280;58618;47.490;8.736;2023-02-17T03:27:12;97545.78;;;6.85;67.93
70954;BME280;58618;47.490;8.736;2023-02-17T03:29:39;97575.75;;;7.31;67.72
70954;BME280;58618;47.490;8.736;2023-02-17T03:32:07;97585.03;;;7.20;69.18
70954;BME280;58618;47.490;8.736;2023-02-17T03:34:35;97586.38;;;7.11;70.33
70954;BME280;58618;47.490;8.736;2023-02-17T03:37:03;97584.38;;;7.13;69.92
70954;BME280;58618;47.490;8.736;2023-02-17T03:39:30;97584.47;;;7.07;69.98
70954;BME280;58618;47.490;8.736;2023-02-17T03:41:58;97582.56;;;7.26;67.32
70954;BME280;58618;47.490;8.736;2023-02-17T03:44:25;97598.31;;;7.17;70.19
70954;BME280;58618;47.490;8.736;2023-02-17T03:46:52;97575.66;;;6.91;71.10
70954;BME280;58618;47.490;8.736;2023-02-17T03:49:20;97580.00;;;7.26;67.68
70954;BME280;58618;47.490;8.736;2023-02-17T03:51:47;97587.47;;;7.15;72.17
70954;BME280;58618;47.490;8.736;2023-02-17T03:54:15;97576.31;;;7.10;69.67
70954;BME280;58618;47.490;8.736;2023-02-17T03:56:43;97593.28;;;7.11;70.30
70954;BME280;58618;47.490;8.736;2023-02-17T03:59:10;97570.66;;;6.96;71.13
70954;BME280;58618;47.490;8.736;2023-02-17T04:01:37;97592.38;;;7.05;71.42
70954;BME280;58618;47.490;8.736;2023-02-17T04:04:05;97580.56;;;7.04;71.06
70954;BME280;58618;47.490;8.736;2023-02-17T04:06:32;97587.47;;;7.15;69.53
70954;BME280;58618;47.490;8.736;2023-02-17T04:08:59;97580.88;;;7.31;70.62
70954;BME280;58618;47.490;8.736;2023-02-17T04:11:28;97585.91;;;7.49;67.33
70954;BME280;58618;47.490;8.736;2023-02-17T04:13:55;97576.31;;;7.45;67.70
70954;BME280;58618;47.490;8.736;2023-02-17T04:16:22;97583.22;;;7.56;66.62
70954;BME280;58618;47.490;8.736;2023-02-17T04:18:49;97591.94;;;7.55;68.63
70954;BME280;58618;47.490;8.736;2023-02-17T04:21:16;97592.84;;;7.89;64.78
70954;BME280;58618;47.490;8.736;2023-02-17T04:23:44;97596.28;;;7.94;65.31
70954;BME280;58618;47.490;8.736;2023-02-17T04:26:11;97602.47;;;7.82;68.78
70954;BME280;58618;47.490;8.736;2023-02-17T04:28:40;97596.75;;;7.91;65.45
70954;BME280;58618;47.490;8.736;2023-02-17T04:31:08;97607.03;;;7.91;65.05
70954;BME280;58618;47.490;8.736;2023-02-17T04:33:35;97601.31;;;8.01;64.96
70954;BME280;58618;47.490;8.736;2023-02-17T04:36:03;97573.78;;;7.73;65.25
70954;BME280;58618;47.490;8.736;2023-02-17T04:38:31;97602.47;;;7.82;66.52
70954;BME280;58618;47.490;8.736;2023-02-17T04:40:59;97599.34;;;7.80;66.41
70954;BME280;58618;47.490;8.736;2023-02-17T04:43:27;97597.47;;;7.75;67.32
70954;BME280;58618;47.490;8.736;2023-02-17T04:45:56;97590.97;;;7.84;66.33
70954;BME280;58618;47.490;8.736;2023-02-17T04:48:24;97607.72;;;7.75;67.21
70954;BME280;58618;47.490;8.736;2023-02-17T04:50:51;97591.88;;;7.78;66.58
70954;BME280;58618;47.490;8.736;2023-02-17T04:53:18;97609.25;;;7.88;65.91
70954;BME280;58618;47.490;8.736;2023-02-17T04:55:47;97610.78;;;8.00;65.47
70954;BME280;58618;47.490;8.736;2023-02-17T04:58:14;97591.03;;;8.01;64.00
70954;BME280;58618;47.490;8.736;2023-02-17T05:00:42;97588.47;;;7.89;67.26
70954;BME280;58618;47.490;8.736;2023-02-17T05:03:11;97577.31;;;7.95;63.62
70954;BME280;58618;47.490;8.736;2023-02-17T05:05:38;97545.53;;;7.73;65.69
70954;BME280;58618;47.490;8.736;2023-02-17T05:08:05;97573.06;;;7.89;64.31
70954;BME280;58618;47.490;8.736;2023-02-17T05:10:34;97589.94;;;7.97;64.58
70954;BME280;58618;47.490;8.736;2023-02-17T05:13:01;97584.00;;;7.96;65.76
70954;BME280;58618;47.490;8.736;2023-02-17T05:15:29;97592.25;;;7.98;66.29
70954;BME280;58618;47.490;8.736;2023-02-17T05:17:56;97579.72;;;8.14;67.37
70954;BME280;58618;47.490;8.736;2023-02-17T05:20:24;97582.53;;;8.29;66.88
70954;BME280;58618;47.490;8.736;2023-02-17T05:22:52;97567.25;;;8.22;66.27
70954;BME280;58618;47.490;8.736;2023-02-17T05:25:20;97585.81;;;8.24;66.99
70954;BME280;58618;47.490;8.736;2023-02-17T05:27:47;97536.38;;;8.05;68.08
70954;BME280;58618;47.490;8.736;2023-02-17T05:30:15;97589.69;;;8.55;64.73
70954;BME280;58618;47.490;8.736;2023-02-17T05:32:42;97598.50;;;8.59;65.69
70954;BME280;58618;47.490;8.736;2023-02-17T05:35:09;97586.56;;;8.53;65.72
70954;BME280;58618;47.490;8.736;2023-02-17T05:37:38;97587.28;;;8.48;66.08
70954;BME280;58618;47.490;8.736;2023-02-17T05:40:06;97581.44;;;8.25;67.94
70954;BME280;58618;47.490;8.736;2023-02-17T05:42:34;97579.88;;;8.24;67.95
70954;BME280;58618;47.490;8.736;2023-02-17T05:45:01;97555.09;;;8.18;64.83
70954;BME280;58618;47.490;8.736;2023-02-17T05:47:28;97570.97;;;8.15;66.36
70954;BME280;58618;47.490;8.736;2023-02-17T05:49:55;97571.13;;;8.08;66.96
70954;BME280;58618;47.490;8.736;2023-02-17T05:52:23;97590.44;;;8.11;66.96
70954;BME280;58618;47.490;8.736;2023-02-17T05:54:52;97592.81;;;8.29;66.93
70954;BME280;58618;47.490;8.736;2023-02-17T05:57:20;97581.72;;;8.12;67.45
70954;BME280;58618;47.490;8.736;2023-02-17T05:59:48;97581.53;;;8.01;68.11
70954;BME280;58618;47.490;8.736;2023-02-17T06:02:15;97582.44;;;7.95;65.81
70954;BME280;58618;47.490;8.736;2023-02-17T06:04:42;97593.09;;;7.87;68.33
70954;BME280;58618;47.490;8.736;2023-02-17T06:07:09;97582.63;;;7.77;67.30
70954;BME280;58618;47.490;8.736;2023-02-17T06:09:37;97583.06;;;7.74;67.93
70954;BME280;58618;47.490;8.736;2023-02-17T06:12:06;97572.59;;;7.64;70.56
70954;BME280;58618;47.490;8.736;2023-02-17T06:14:33;97563.59;;;7.50;72.39
70954;BME280;58618;47.490;8.736;2023-02-17T06:17:00;97587.56;;;7.55;73.98
70954;BME280;58618;47.490;8.736;2023-02-17T06:19:29;97586.59;;;7.45;73.52
70954;BME280;58618;47.490;8.736;2023-02-17T06:21:56;97581.66;;;7.32;75.78
70954;BME280;58618;47.490;8.736;2023-02-17T06:24:23;97565.59;;;7.25;75.50
70954;BME280;58618;47.490;8.736;2023-02-17T06:26:51;97589.25;;;7.27;77.79
70954;BME280;58618;47.490;8.736;2023-02-17T06:29:20;97577.09;;;7.10;77.46
70954;BME280;58618;47.490;8.736;2023-02-17T06:31:47;97598.19;;;7.12;76.70
70954;BME280;58618;47.490;8.736;2023-02-17T06:34:15;97603.75;;;7.09;76.64
70954;BME280;58618;47.490;8.736;2023-02-17T06:36:42;97570.63;;;6.85;75.71
70954;BME280;58618;47.490;8.736;2023-02-17T06:39:09;97610.47;;;7.10;76.43
70954;BME280;58618;47.490;8.736;2023-02-17T06:41:36;97617.25;;;7.16;78.08
70954;BME280;58618;47.490;8.736;2023-02-17T06:44:04;97614.13;;;7.14;80.04
70954;BME280;58618;47.490;8.736;2023-02-17T06:46:33;97610.47;;;7.10;78.79
70954;BME280;58618;47.490;8.736;2023-02-17T06:49:01;97588.38;;;7.09;78.42
70954;BME280;58618;47.490;8.736;2023-02-17T06:51:29;97591.50;;;7.11;77.40
70954;BME280;58618;47.490;8.736;2023-02-17T06:53:56;97615.50;;;7.29;74.38
70954;BME280;58618;47.490;8.736;2023-02-17T06:56:23;97626.28;;;7.31;74.49
70954;BME280;58618;47.490;8.736;2023-02-17T06:58:50;97620.72;;;7.45;70.92
70954;BME280;58618;47.490;8.736;2023-02-17T07:01:21;97632.75;;;7.68;70.66
70954;BME280;58618;47.490;8.736;2023-02-17T07:03:50;97634.97;;;7.76;75.12
70954;BME280;58618;47.490;8.736;2023-02-17T07:06:17;97633.63;;;7.62;74.57
70954;BME280;58618;47.490;8.736;2023-02-17T07:08:45;97629.75;;;7.71;71.47
70954;BME280;58618;47.490;8.736;2023-02-17T07:11:13;97624.16;;;7.62;72.19
70954;BME280;58618;47.490;8.736;2023-02-17T07:13:40;97629.28;;;7.74;71.43
70954;BME280;58618;47.490;8.736;2023-02-17T07:16:08;97638.34;;;7.77;74.19
70954;BME280;58618;47.490;8.736;2023-02-17T07:18:36;97630.94;;;7.80;73.29
70954;BME280;58618;47.490;8.736;2023-02-17T07:21:05;97590.25;;;7.60;70.70
70954;BME280;58618;47.490;8.736;2023-02-17T07:23:33;97591.03;;;7.61;70.73
70954;BME280;58618;47.490;8.736;2023-02-17T07:26:01;97611.41;;;7.79;70.20
70954;BME280;58618;47.490;8.736;2023-02-17T07:28:29;97650.50;;;8.33;68.52
70954;BME280;58618;47.490;8.736;2023-02-17T07:31:04;97619.75;;;8.26;64.15
70954;BME280;58618;47.490;8.736;2023-02-17T07:33:32;97626.53;;;8.44;67.66
70954;BME280;58618;47.490;8.736;2023-02-17T07:35:59;97646.22;;;8.67;67.39
70954;BME280;58618;47.490;8.736;2023-02-17T07:38:32;97640.63;;;8.86;62.86
70954;BME280;58618;47.490;8.736;2023-02-17T07:41:03;97634.00;;;8.90;62.92
70954;BME280;58618;47.490;8.736;2023-02-17T07:43:34;97626.91;;;8.98;61.67
70954;BME280;58618;47.490;8.736;2023-02-17T07:46:01;97631.50;;;9.29;61.16
70954;BME280;58618;47.490;8.736;2023-02-17T07:48:29;97644.19;;;9.52;59.19
70954;BME280;58618;47.490;8.736;2023-02-17T07:50:56;97621.91;;;9.63;57.92
70954;BME280;58618;47.490;8.736;2023-02-17T07:53:24;97648.66;;;9.79;58.96
70954;BME280;58618;47.490;8.736;2023-02-17T07:55:53;97653.34;;;9.82;57.72
70954;BME280;58618;47.490;8.736;2023-02-17T07:58:21;97622.72;;;9.85;57.22
70954;BME280;58618;47.490;8.736;2023-02-17T08:00:49;97655.16;;;10.03;57.70
70954;BME280;58618;47.490;8.736;2023-02-17T08:03:16;97635.41;;;9.92;57.83
70954;BME280;58618;47.490;8.736;2023-02-17T08:05:43;97656.22;;;10.07;57.29
70954;BME280;58618;47.490;8.736;2023-02-17T08:08:10;97655.50;;;10.11;58.85
70954;BME280;58618;47.490;8.736;2023-02-17T08:11:00;97657.44;;;10.21;57.52
70954;BME280;58618;47.490;8.736;2023-02-17T08:13:45;97651.41;;;10.37;57.28
70954;BME280;58618;47.490;8.736;2023-02-17T08:16:12;97664.69;;;10.46;56.23
70954;BME280;58618;47.490;8.736;2023-02-17T08:18:40;97657.78;;;10.51;56.44
70954;BME280;58618;47.490;8.736;2023-02-17T08:21:07;97664.47;;;10.52;57.12
70954;BME280;58618;47.490;8.736;2023-02-17T08:23:34;97649.94;;;10.41;55.32
70954;BME280;58618;47.490;8.736;2023-02-17T08:26:03;97669.81;;;10.68;55.15
70954;BME280;58618;47.490;8.736;2023-02-17T08:28:31;97683.88;;;10.82;56.09
70954;BME280;58618;47.490;8.736;2023-02-17T08:30:58;97682.50;;;10.74;55.73
70954;BME280;58618;47.490;8.736;2023-02-17T08:33:27;97683.22;;;10.70;55.51
70954;BME280;58618;47.490;8.736;2023-02-17T08:35:54;97657.28;;;10.54;55.02
70954;BME280;58618;47.490;8.736;2023-02-17T08:38:21;97677.53;;;10.68;56.99
70954;BME280;58618;47.490;8.736;2023-02-17T08:40:49;97679.09;;;10.69;56.15
70954;BME280;58618;47.490;8.736;2023-02-17T08:43:17;97681.72;;;10.74;55.70
70954;BME280;58618;47.490;8.736;2023-02-17T08:45:45;97696.22;;;10.80;57.99
70954;BME280;58618;47.490;8.736;2023-02-17T08:48:12;97672.38;;;10.68;55.67
70954;BME280;58618;47.490;8.736;2023-02-17T08:50:40;97692.91;;;10.84;56.80
70954;BME280;58618;47.490;8.736;2023-02-17T08:53:07;97701.00;;;10.93;56.82
70954;BME280;58618;47.490;8.736;2023-02-17T08:55:34;97701.56;;;11.00;56.41
70954;BME280;58618;47.490;8.736;2023-02-17T08:58:03;97712.97;;;11.04;56.05
70954;BME280;58618;47.490;8.736;2023-02-17T09:00:31;97699.78;;;11.00;56.80
70954;BME280;58618;47.490;8.736;2023-02-17T09:02:59;97717.69;;;11.12;55.99
70954;BME280;58618;47.490;8.736;2023-02-17T09:05:26;97718.78;;;11.21;55.45
70954;BME280;58618;47.490;8.736;2023-02-17T09:07:54;97697.81;;;11.13;55.88
70954;BME280;58618;47.490;8.736;2023-02-17T09:10:21;97724.47;;;11.18;55.61
70954;BME280;58618;47.490;8.736;2023-02-17T09:12:49;97696.59;;;11.20;54.87
70954;BME280;58618;47.490;8.736;2023-02-17T09:15:17;97715.81;;;11.34;56.35
70954;BME280;58618;47.490;8.736;2023-02-17T09:17:45;97720.38;;;11.59;55.15
70954;BME280;58618;47.490;8.736;2023-02-17T09:20:12;97704.16;;;11.69;54.50
70954;BME280;58618;47.490;8.736;2023-02-17T09:22:39;97715.19;;;11.96;52.89
70954;BME280;58618;47.490;8.736;2023-02-17T09:25:08;97715.75;;;11.98;54.92
70954;BME280;58618;47.490;8.736;2023-02-17T09:27:36;97704.28;;;11.84;54.52
70954;BME280;58618;47.490;8.736;2023-02-17T09:30:05;97713.09;;;11.88;53.03
70954;BME280;58618;47.490;8.736;2023-02-17T09:32:32;97727.56;;;11.84;53.34
70954;BME280;58618;47.490;8.736;2023-02-17T09:35:01;97734.22;;;11.80;53.07
70954;BME280;58618;47.490;8.736;2023-02-17T09:37:30;97734.25;;;11.85;54.53
70954;BME280;58618;47.490;8.736;2023-02-17T09:39:57;97726.47;;;11.80;55.19
70954;BME280;58618;47.490;8.736;2023-02-17T09:42:26;97725.88;;;11.68;54.26
70954;BME280;58618;47.490;8.736;2023-02-17T09:44:57;97747.16;;;11.80;54.30
70954;BME280;58618;47.490;8.736;2023-02-17T09:47:29;97752.91;;;11.87;54.08
70954;BME280;58618;47.490;8.736;2023-02-17T09:50:03;97735.28;;;11.79;55.01
70954;BME280;58618;47.490;8.736;2023-02-17T09:52:36;97746.94;;;11.87;55.31
70954;BME280;58618;47.490;8.736;2023-02-17T09:55:08;97739.75;;;11.94;55.88
70954;BME280;58618;47.490;8.736;2023-02-17T09:57:41;97745.00;;;12.09;54.81
70954;BME280;58618;47.490;8.736;2023-02-17T10:00:15;97736.41;;;11.98;55.02
70954;BME280;58618;47.490;8.736;2023-02-17T10:02:46;97731.31;;;12.13;55.86
70954;BME280;58618;47.490;8.736;2023-02-17T10:05:21;97733.41;;;12.21;55.56
70954;BME280;58618;47.490;8.736;2023-02-17T10:07:54;97733.19;;;12.28;54.15
70954;BME280;58618;47.490;8.736;2023-02-17T10:10:25;97740.66;;;12.19;54.26
70954;BME280;58618;47.490;8.736;2023-02-17T10:12:56;97735.97;;;12.16;55.00
70954;BME280;58618;47.490;8.736;2023-02-17T10:15:28;97748.41;;;12.14;55.54
70954;BME280;58618;47.490;8.736;2023-02-17T10:18:02;97743.72;;;12.11;54.63
70954;BME280;58618;47.490;8.736;2023-02-17T10:20:34;97734.66;;;12.04;57.44
70954;BME280;58618;47.490;8.736;2023-02-17T10:23:06;97721.16;;;11.97;54.26
70954;BME280;58618;47.490;8.736;2023-02-17T10:25:48;97731.09;;;12.15;54.66
70954;BME280;58618;47.490;8.736;2023-02-17T10:28:21;97740.94;;;12.23;55.26
70954;BME280;58618;47.490;8.736;2023-02-17T10:30:59;97724.91;;;12.21;56.41
70954;BME280;58618;47.490;8.736;2023-02-17T10:33:34;97756.31;;;12.50;54.36
70954;BME280;58618;47.490;8.736;2023-02-17T10:36:10;97727.81;;;12.40;54.39
70954;BME280;58618;47.490;8.736;2023-02-17T10:38:47;97751.75;;;12.77;53.09
70954;BME280;58618;47.490;8.736;2023-02-17T10:41:19;97753.34;;;12.93;53.40
70954;BME280;58618;47.490;8.736;2023-02-17T10:43:49;97753.66;;;13.12;53.17
70954;BME280;58618;47.490;8.736;2023-02-17T10:46:18;97746.41;;;13.14;53.36
70954;BME280;58618;47.490;8.736;2023-02-17T10:48:50;97755.50;;;13.27;55.49
70954;BME280;58618;47.490;8.736;2023-02-17T10:51:23;97748.75;;;13.46;53.29
70954;BME280;58618;47.490;8.736;2023-02-17T10:53:55;97744.09;;;13.43;54.18
70954;BME280;58618;47.490;8.736;2023-02-17T10:56:27;97727.50;;;13.19;54.81
70954;BME280;58618;47.490;8.736;2023-02-17T10:59:01;97734.78;;;13.27;54.22
70954;BME280;58618;47.490;8.736;2023-02-17T11:01:33;97735.53;;;13.22;55.42
70954;BME280;58618;47.490;8.736;2023-02-17T11:04:03;97728.53;;;13.28;55.75
70954;BME280;58618;47.490;8.736;2023-02-17T11:06:40;97718.16;;;13.23;56.32
70954;BME280;58618;47.490;8.736;2023-02-17T11:09:18;97705.22;;;13.18;56.12
70954;BME280;58618;47.490;8.736;2023-02-17T11:11:54;97702.13;;;13.16;56.25
70954;BME280;58618;47.490;8.736;2023-02-17T11:14:27;97709.88;;;13.51;54.45
70954;BME280;58618;47.490;8.736;2023-02-17T11:16:58;97702.59;;;13.63;55.91
70954;BME280;58618;47.490;8.736;2023-02-17T11:19:29;97704.91;;;13.70;56.63
70954;BME280;58618;47.490;8.736;2023-02-17T11:22:02;97699.47;;;13.71;55.60
70954;BME280;58618;47.490;8.736;2023-02-17T11:24:31;97691.69;;;13.76;56.46
70954;BME280;58618;47.490;8.736;2023-02-17T11:27:01;97687.50;;;13.80;55.55
70954;BME280;58618;47.490;8.736;2023-02-17T11:29:29;97700.25;;;13.72;56.19
70954;BME280;58618;47.490;8.736;2023-02-17T11:32:00;97697.91;;;13.70;55.77
70954;BME280;58618;47.490;8.736;2023-02-17T11:34:31;97684.44;;;13.68;55.66
70954;BME280;58618;47.490;8.736;2023-02-17T11:37:04;97674.59;;;13.55;57.08
70954;BME280;58618;47.490;8.736;2023-02-17T11:39:43;97692.25;;;13.53;57.08
70954;BME280;58618;47.490;8.736;2023-02-17T11:42:14;97686.00;;;13.54;57.39
70954;BME280;58618;47.490;8.736;2023-02-17T11:44:42;97678.22;;;13.64;57.45
70954;BME280;58618;47.490;8.736;2023-02-17T11:47:15;97677.94;;;13.71;57.89
70954;BME280;58618;47.490;8.736;2023-02-17T11:49:56;97678.69;;;13.81;57.83
70954;BME280;58618;47.490;8.736;2023-02-17T11:52:45;97667.81;;;13.84;57.87
70954;BME280;58618;47.490;8.736;2023-02-17T11:55:19;97660.06;;;13.79;57.33
70954;BME280;58618;47.490;8.736;2023-02-17T11:58:00;97669.09;;;13.82;58.11
70954;BME280;58618;47.490;8.736;2023-02-17T12:00:39;97671.69;;;13.87;57.43
70954;BME280;58618;47.490;8.736;2023-02-17T12:03:46;97659.00;;;13.75;57.41
70954;BME280;58618;47.490;8.736;2023-02-17T12:06:23;97676.09;;;13.86;57.00
70954;BME280;58618;47.490;8.736;2023-02-17T12:09:05;97652.28;;;13.74;56.58
70954;BME280;58618;47.490;8.736;2023-02-17T12:11:42;97658.50;;;13.78;58.28
70954;BME280;58618;47.490;8.736;2023-02-17T12:14:25;97654.88;;;13.79;57.99
70954;BME280;58618;47.490;8.736;2023-02-17T12:17:01;97658.97;;;13.85;57.59
70954;BME280;58618;47.490;8.736;2023-02-17T12:19:39;97647.06;;;13.84;58.26
70954;BME280;58618;47.490;8.736;2023-02-17T12:22:16;97658.97;;;13.95;57.11
70954;BME280;58618;47.490;8.736;2023-02-17T12:24:55;97662.06;;;13.98;58.67
70954;BME280;58618;47.490;8.736;2023-02-17T12:27:37;97651.94;;;13.96;58.63
70954;BME280;58618;47.490;8.736;2023-02-17T12:30:22;97644.88;;;14.07;58.44
70954;BME280;58618;47.490;8.736;2023-02-17T12:33:03;97651.09;;;14.16;57.58
70954;BME280;58618;47.490;8.736;2023-02-17T12:35:41;97641.81;;;14.05;58.95
70954;BME280;58618;47.490;8.736;2023-02-17T12:38:14;97648.03;;;14.04;59.06
70954;BME280;58618;47.490;8.736;2023-02-17T12:40:49;97650.13;;;13.91;59.79
70954;BME280;58618;47.490;8.736;2023-02-17T12:43:23;97648.88;;;13.84;61.07
70954;BME280;58618;47.490;8.736;2023-02-17T12:45:53;97640.06;;;13.85;63.31
70954;BME280;58618;47.490;8.736;2023-02-17T12:48:27;97636.66;;;13.94;61.17
70954;BME280;58618;47.490;8.736;2023-02-17T12:51:02;97637.72;;;13.88;62.28
70954;BME280;58618;47.490;8.736;2023-02-17T12:53:39;97632.72;;;14.02;60.74
70954;BME280;58618;47.490;8.736;2023-02-17T12:56:35;97634.56;;;13.96;61.43
70954;BME280;58618;47.490;8.736;2023-02-17T12:59:10;97637.63;;;14.09;60.49
70954;BME280;58618;47.490;8.736;2023-02-17T13:01:56;97641.78;;;14.10;61.01
70954;BME280;58618;47.490;8.736;2023-02-17T13:04:25;97635.50;;;14.21;61.47
70954;BME280;58618;47.490;8.736;2023-02-17T13:07:05;97633.41;;;14.23;61.21
70954;BME280;58618;47.490;8.736;2023-02-17T13:09:35;97625.63;;;14.18;61.17
70954;BME280;58618;47.490;8.736;2023-02-17T13:12:32;97637.81;;;14.22;60.55
70954;BME280;58618;47.490;8.736;2023-02-17T13:15:01;97630.31;;;14.21;60.65
70954;BME280;58618;47.490;8.736;2023-02-17T13:17:30;97628.69;;;14.30;60.07
70954;BME280;58618;47.490;8.736;2023-02-17T13:20:24;97630.28;;;14.26;60.84
70954;BME280;58618;47.490;8.736;2023-02-17T13:23:06;97627.38;;;14.43;60.15
70954;BME280;58618;47.490;8.736;2023-02-17T13:25:34;97627.63;;;14.36;60.06
70954;BME280;58618;47.490;8.736;2023-02-17T13:28:16;97619.88;;;14.31;60.87